createdAt,value
2024-02-13T18:21:02.409Z,17.23
2024-02-13T18:22:05.720Z,18.33
2024-02-13T18:23:11.386Z,20.05
2024-02-13T18:24:13.862Z,17.67
2024-02-13T18:25:16.580Z,18.33
2024-02-13T18:26:23.261Z,20.77
2024-02-13T18:27:25.497Z,25.45
2024-02-13T18:28:29.453Z,20.33
2024-02-13T18:29:34.132Z,23.38
2024-02-13T18:30:36.854Z,19.15
2024-02-13T18:31:39.843Z,17.33
2024-02-13T18:32:42.711Z,16.55
2024-02-13T18:33:45.236Z,14.93
2024-02-13T18:34:47.751Z,11.05
2024-02-13T18:35:50.248Z,13.57
2024-02-13T18:36:52.675Z,20.15
2024-02-13T18:37:55.141Z,14.48
2024-02-13T18:38:57.953Z,15.05
2024-02-13T18:40:00.982Z,16.00
2024-02-13T18:41:03.978Z,11.65
2024-02-13T18:42:06.368Z,20.02
2024-02-13T18:43:08.956Z,11.32
2024-02-13T18:44:11.434Z,14.27
2024-02-13T18:45:14.149Z,16.33
2024-02-13T18:46:16.558Z,15.05
2024-02-13T18:47:19.280Z,17.92
2024-02-13T18:48:24.039Z,20.63
2024-02-13T18:49:26.672Z,14.95
2024-02-13T18:50:29.182Z,12.68
2024-02-13T18:51:32.128Z,15.85
2024-02-13T18:52:34.345Z,17.00
2024-02-13T18:53:36.918Z,14.82
2024-02-13T18:54:39.722Z,16.10
2024-02-13T18:55:45.382Z,21.15
2024-02-13T18:56:49.641Z,20.48
2024-02-13T18:57:52.960Z,19.75
2024-02-13T18:58:55.680Z,25.17
2024-02-13T18:59:58.423Z,20.83
2024-02-13T19:01:01.355Z,17.90
2024-02-13T19:02:04.078Z,20.65
2024-02-13T19:03:08.611Z,24.33
2024-02-13T19:04:11.095Z,19.52
2024-02-13T19:05:13.859Z,20.70
2024-02-13T19:06:21.562Z,22.52
2024-02-13T19:07:23.969Z,22.77
2024-02-13T19:08:26.631Z,15.52
2024-02-13T19:09:31.657Z,17.85
2024-02-13T19:10:37.035Z,19.33
2024-02-13T19:11:41.309Z,16.13
2024-02-13T19:12:44.388Z,18.73
2024-02-13T19:13:46.865Z,20.17
2024-02-13T19:14:49.420Z,18.10
2024-02-13T19:15:52.038Z,13.60
2024-02-13T19:16:54.673Z,16.33
2024-02-13T19:17:57.725Z,17.17
2024-02-13T19:19:04.702Z,14.15
2024-02-13T19:20:08.894Z,17.80
2024-02-13T19:21:11.303Z,22.63
2024-02-13T19:22:14.564Z,20.73
2024-02-13T19:23:22.277Z,23.10
2024-02-13T19:24:24.800Z,19.38
2024-02-13T19:25:27.083Z,21.60
2024-02-13T19:26:29.821Z,16.13
2024-02-13T19:27:33.558Z,19.80
2024-02-13T19:28:37.678Z,22.83
2024-02-13T19:29:41.507Z,21.80
2024-02-13T19:30:44.699Z,22.38
2024-02-13T19:31:47.044Z,18.58
2024-02-13T19:32:49.617Z,14.88
2024-02-13T19:33:52.295Z,23.38
2024-02-13T19:34:54.717Z,18.35
2024-02-13T19:35:57.482Z,23.27
2024-02-13T19:37:00.222Z,23.00
2024-02-13T19:38:02.608Z,19.13
2024-02-13T19:39:05.207Z,18.42
2024-02-13T19:40:08.693Z,18.17
2024-02-13T19:41:16.668Z,18.15
2024-02-13T19:42:19.265Z,15.65
2024-02-13T19:43:21.697Z,18.42
2024-02-13T19:44:24.772Z,21.65
2024-02-13T19:45:27.324Z,19.15
2024-02-13T19:46:30.780Z,23.77
2024-02-13T19:47:34.612Z,14.43
2024-02-13T19:48:38.714Z,13.32
2024-02-13T19:49:41.473Z,15.05
2024-02-13T19:50:43.904Z,10.85
2024-02-13T19:51:46.869Z,16.60
2024-02-13T19:52:49.449Z,17.25
2024-02-13T19:53:52.849Z,19.67
2024-02-13T19:54:55.439Z,19.50
2024-02-13T19:55:58.414Z,18.25
2024-02-13T19:57:00.789Z,22.83
2024-02-13T19:58:04.150Z,23.75
2024-02-13T19:59:06.617Z,27.17
2024-02-13T20:00:10.916Z,20.75
2024-02-13T20:01:13.853Z,28.33
2024-02-13T20:02:20.321Z,24.10
2024-02-13T20:03:23.724Z,24.58
2024-02-13T20:04:26.187Z,31.48
2024-02-13T20:05:29.296Z,23.95
2024-02-13T20:06:33.716Z,30.30
2024-02-13T20:07:38.900Z,29.45
2024-02-13T20:08:41.509Z,23.83
2024-02-13T20:09:45.791Z,21.65
2024-02-13T20:10:48.310Z,19.83
2024-02-13T20:11:51.523Z,29.60
2024-02-13T20:12:55.490Z,22.08
2024-02-13T20:13:59.315Z,23.83
2024-02-13T20:15:02.250Z,26.67
2024-02-13T20:16:05.724Z,25.70
2024-02-13T20:17:08.592Z,24.17
2024-02-13T20:18:12.738Z,26.38
2024-02-13T20:19:15.937Z,21.40
2024-02-13T20:20:18.838Z,25.20
2024-02-13T20:21:22.173Z,24.58
2024-02-13T20:22:24.876Z,19.65
2024-02-13T20:23:27.340Z,23.40
2024-02-13T20:24:33.208Z,22.58
2024-02-13T20:25:35.861Z,26.38
2024-02-13T20:26:39.000Z,23.77
2024-02-13T20:27:45.414Z,22.98
2024-02-13T20:28:48.161Z,21.08
2024-02-13T20:29:51.626Z,21.15
2024-02-13T20:30:54.505Z,20.23
2024-02-13T20:31:58.429Z,22.13
2024-02-13T20:33:01.570Z,20.92
2024-02-13T20:34:04.749Z,22.48
2024-02-13T20:35:08.787Z,22.88
2024-02-13T20:36:11.765Z,19.23
2024-02-13T20:37:15.960Z,20.40
2024-02-13T20:38:18.453Z,20.55
2024-02-13T20:39:20.920Z,20.65
2024-02-13T20:40:23.848Z,21.27
2024-02-13T20:41:26.149Z,22.25
2024-02-13T20:42:29.677Z,17.45
2024-02-13T20:43:32.278Z,16.38
2024-02-13T20:44:34.567Z,21.52
2024-02-13T20:45:37.277Z,21.67
2024-02-13T20:46:42.294Z,22.80
2024-02-13T20:47:45.065Z,16.13
2024-02-13T20:48:47.879Z,19.88
2024-02-13T20:49:50.908Z,20.40
2024-02-13T20:50:53.584Z,18.45
2024-02-13T20:51:56.128Z,19.13
2024-02-13T20:52:58.751Z,24.23
2024-02-13T20:54:02.516Z,24.42
2024-02-13T20:55:06.046Z,21.80
2024-02-13T20:56:08.276Z,21.17
2024-02-13T20:57:10.506Z,18.80
2024-02-13T20:58:15.738Z,22.30
2024-02-13T20:59:21.274Z,20.58
2024-02-13T21:00:24.333Z,21.05
2024-02-13T21:01:36.245Z,18.63
2024-02-13T21:02:38.922Z,22.85
2024-02-13T21:03:41.419Z,18.20
2024-02-13T21:04:47.152Z,18.67
2024-02-13T21:05:51.894Z,20.85
2024-02-13T21:06:55.584Z,17.58
2024-02-13T21:07:58.452Z,18.40
2024-02-13T21:09:00.749Z,18.33
2024-02-13T21:10:04.952Z,18.25
2024-02-13T21:11:07.463Z,16.98
2024-02-13T21:12:12.058Z,13.35
2024-02-13T21:13:17.788Z,16.55
2024-02-13T21:14:20.498Z,15.27
2024-02-13T21:15:24.000Z,16.25
2024-02-13T21:16:27.925Z,14.40
2024-02-13T21:17:32.439Z,15.25
2024-02-13T21:18:34.722Z,13.13
2024-02-13T21:19:37.149Z,13.88
2024-02-13T21:20:47.554Z,17.98
2024-02-13T21:22:08.835Z,19.05
2024-02-13T21:23:29.935Z,18.60
2024-02-13T21:24:32.478Z,22.67
2024-02-13T21:25:35.226Z,15.23
2024-02-13T21:26:41.290Z,15.65
2024-02-13T21:27:43.798Z,15.98
2024-02-13T21:28:46.437Z,18.45
2024-02-13T21:29:49.205Z,17.20
2024-02-13T21:30:52.507Z,16.40
2024-02-13T21:31:55.550Z,20.70
2024-02-13T21:32:58.640Z,23.27
2024-02-13T21:34:07.481Z,18.10
2024-02-13T21:35:14.159Z,17.85
2024-02-13T21:36:16.601Z,20.13
2024-02-13T21:37:18.915Z,16.23
2024-02-13T21:38:21.311Z,16.77
2024-02-13T21:39:25.794Z,18.85
2024-02-13T21:40:28.707Z,16.23
2024-02-13T21:41:31.544Z,17.50
2024-02-13T21:42:34.094Z,16.17
2024-02-13T21:43:37.893Z,20.85
2024-02-13T21:44:42.924Z,20.17
2024-02-13T21:45:46.506Z,18.95
2024-02-13T21:46:48.932Z,16.33
2024-02-13T21:47:51.281Z,22.90
2024-02-13T21:48:53.907Z,20.35
2024-02-13T21:49:56.416Z,16.58
2024-02-13T21:50:58.954Z,16.92
2024-02-13T21:52:01.414Z,14.57
2024-02-13T21:53:04.214Z,17.02
2024-02-13T21:54:07.685Z,20.23
2024-02-13T21:55:10.700Z,17.23
2024-02-13T21:56:12.956Z,18.75
2024-02-13T21:57:15.451Z,20.88
2024-02-13T21:58:19.586Z,14.88
2024-02-13T21:59:22.563Z,22.95
2024-02-13T22:00:24.969Z,18.58
2024-02-13T22:01:27.584Z,13.55
2024-02-13T22:02:30.036Z,15.35
2024-02-13T22:03:33.641Z,18.92
2024-02-13T22:04:36.294Z,20.13
2024-02-13T22:05:38.885Z,18.27
2024-02-13T22:06:41.358Z,17.88
2024-02-13T22:07:43.898Z,15.30
2024-02-13T22:08:47.310Z,21.67
2024-02-13T22:09:49.738Z,17.20
2024-02-13T22:10:52.500Z,18.92
2024-02-13T22:11:55.009Z,15.35
2024-02-13T22:12:58.049Z,16.98
2024-02-13T22:14:02.346Z,17.10
2024-02-13T22:15:05.783Z,17.63
2024-02-13T22:16:10.464Z,20.35
2024-02-13T22:17:13.150Z,16.92
2024-02-13T22:18:15.700Z,22.33
2024-02-13T22:19:18.708Z,16.10
2024-02-13T22:20:21.401Z,16.02
2024-02-13T22:21:25.796Z,18.63
2024-02-13T22:22:28.661Z,19.05
2024-02-13T22:23:31.216Z,17.30
2024-02-13T22:24:34.304Z,16.92
2024-02-13T22:25:37.510Z,14.77
2024-02-13T22:26:40.507Z,15.43
2024-02-13T22:27:43.273Z,18.42
2024-02-13T22:28:46.117Z,16.92
2024-02-13T22:29:48.514Z,19.40
2024-02-13T22:30:50.954Z,20.88
2024-02-13T22:31:53.342Z,15.57
2024-02-13T22:32:56.770Z,14.25
2024-02-13T22:33:59.365Z,19.17
2024-02-13T22:35:02.160Z,19.05
2024-02-13T22:36:04.930Z,19.55
2024-02-13T22:37:07.317Z,19.38
2024-02-13T22:38:09.727Z,18.35
2024-02-13T22:39:13.650Z,16.23
2024-02-13T22:40:16.789Z,16.65
2024-02-13T22:41:19.332Z,14.32
2024-02-13T22:42:21.836Z,15.02
2024-02-13T22:43:24.276Z,20.38
2024-02-13T22:44:27.071Z,27.42
2024-02-13T22:45:29.644Z,15.18
2024-02-13T22:46:32.064Z,16.20
2024-02-13T22:47:39.950Z,18.08
2024-02-13T22:48:42.619Z,27.58
2024-02-13T22:49:46.049Z,15.85
2024-02-13T22:50:48.918Z,19.45
2024-02-13T22:51:51.503Z,18.35
2024-02-13T22:52:56.555Z,17.63
2024-02-13T22:53:59.188Z,19.38
2024-02-13T22:55:02.678Z,18.25
2024-02-13T22:56:05.601Z,18.38
2024-02-13T22:57:08.168Z,18.52
2024-02-13T22:58:10.646Z,19.27
2024-02-13T22:59:14.069Z,23.38
2024-02-13T23:00:35.259Z,17.23
2024-02-13T23:01:38.123Z,18.30
2024-02-13T23:02:40.634Z,19.48
2024-02-13T23:03:43.738Z,17.60
2024-02-13T23:04:51.791Z,19.55
2024-02-13T23:05:59.211Z,18.67
2024-02-13T23:07:02.335Z,21.35
2024-02-13T23:08:07.016Z,28.85
2024-02-13T23:09:18.029Z,37.13
2024-02-13T23:10:21.798Z,23.88
2024-02-13T23:11:24.433Z,35.05
2024-02-13T23:12:26.719Z,39.20
2024-02-13T23:13:35.966Z,40.13
2024-02-13T23:14:43.448Z,36.85
2024-02-13T23:15:49.173Z,46.75
2024-02-13T23:16:51.893Z,33.97
2024-02-13T23:17:55.007Z,41.50
2024-02-13T23:18:57.625Z,35.70
2024-02-13T23:20:00.339Z,30.52
2024-02-13T23:21:04.475Z,32.33
2024-02-13T23:22:07.074Z,31.52
2024-02-13T23:23:10.046Z,27.23
2024-02-13T23:24:12.600Z,25.80
2024-02-13T23:25:15.626Z,26.35
2024-02-13T23:26:18.020Z,24.27
2024-02-13T23:27:20.609Z,20.17
2024-02-13T23:28:23.401Z,28.42
2024-02-13T23:29:28.231Z,26.20
2024-02-13T23:30:30.697Z,30.15
2024-02-13T23:31:33.072Z,20.98
2024-02-13T23:32:35.645Z,24.13
2024-02-13T23:33:39.801Z,21.42
2024-02-13T23:34:42.245Z,20.98
2024-02-13T23:35:47.241Z,16.40
2024-02-13T23:36:50.155Z,20.10
2024-02-13T23:37:52.540Z,17.83
2024-02-13T23:38:54.943Z,19.30
2024-02-13T23:39:57.466Z,21.25
2024-02-13T23:40:59.832Z,17.02
2024-02-13T23:42:02.986Z,14.35
2024-02-13T23:43:07.451Z,14.95
2024-02-13T23:44:10.852Z,18.85
2024-02-13T23:45:13.536Z,17.92
2024-02-13T23:46:15.869Z,16.35
2024-02-13T23:47:18.322Z,12.68
2024-02-13T23:48:23.935Z,15.93
2024-02-13T23:49:26.491Z,21.55
2024-02-13T23:50:28.967Z,17.50
2024-02-13T23:51:31.496Z,15.85
2024-02-13T23:52:35.333Z,15.93
2024-02-13T23:53:38.013Z,18.48
2024-02-13T23:54:41.197Z,15.18
2024-02-13T23:55:44.554Z,14.90
2024-02-13T23:56:47.023Z,18.45
2024-02-13T23:57:49.503Z,19.58
2024-02-13T23:58:52.416Z,14.80
2024-02-13T23:59:55.866Z,20.33
